Time;durP1;ratioP1;P1;durP2;ratioP2;P2;SDS_P1;SDS_P2;PMS_P1;PMS_P2;Temp;Humidity;BMP_temperature;BMP_pressure;BME280_temperature;BME280_humidity;BME280_pressure;Samples;Min_cycle;Max_cycle;Signal;HPM_P1;HPM_P2
2023/04/27 00:00:24;;;;;;;5.70;4.35;;;8.70;99.90;;;;;;5011954;28;20033;-83
2023/04/27 00:02:50;;;;;;;5.72;5.00;;;8.60;99.90;;;;;;5011926;28;20018;-82
2023/04/27 00:05:15;;;;;;;6.72;4.30;;;8.70;99.90;;;;;;5010765;28;20108;-82
2023/04/27 00:07:41;;;;;;;7.00;5.03;;;8.70;99.90;;;;;;5012058;28;20073;-83
2023/04/27 00:10:07;;;;;;;7.05;5.00;;;8.70;99.90;;;;;;5011657;28;20039;-82
2023/04/27 00:12:33;;;;;;;5.88;4.80;;;8.60;99.90;;;;;;5012625;28;20109;-81
2023/04/27 00:14:59;;;;;;;8.95;4.72;;;8.60;99.90;;;;;;5032051;28;20548;-82
2023/04/27 00:17:25;;;;;;;5.32;4.32;;;8.70;99.90;;;;;;5030365;28;20028;-82
2023/04/27 00:19:51;;;;;;;8.98;4.47;;;8.60;99.90;;;;;;5030918;28;20303;-82
2023/04/27 00:22:16;;;;;;;11.93;6.25;;;8.70;99.90;;;;;;5031439;28;20093;-83
2023/04/27 00:24:42;;;;;;;8.85;5.10;;;8.60;99.90;;;;;;5030840;28;20140;-82
2023/04/27 00:27:07;;;;;;;6.13;5.03;;;8.50;99.90;;;;;;5030963;28;20054;-82
2023/04/27 00:29:33;;;;;;;10.35;5.00;;;8.50;99.90;;;;;;5031287;28;20029;-82
2023/04/27 00:31:58;;;;;;;7.57;4.43;;;8.40;99.90;;;;;;5030301;28;20473;-82
2023/04/27 00:34:24;;;;;;;7.60;5.38;;;8.50;99.90;;;;;;5031002;28;20029;-82
2023/04/27 00:36:50;;;;;;;7.38;5.50;;;8.40;99.90;;;;;;5030832;28;20022;-83
2023/04/27 00:39:15;;;;;;;6.82;5.35;;;8.40;99.90;;;;;;5030087;28;20037;-83
2023/04/27 00:41:41;;;;;;;8.23;5.43;;;8.40;99.90;;;;;;5035215;28;20055;-81
2023/04/27 00:44:07;;;;;;;6.40;5.30;;;8.40;99.90;;;;;;5035122;28;20484;-82
2023/04/27 00:46:33;;;;;;;6.40;5.80;;;8.40;99.90;;;;;;5034553;28;20381;-82
2023/04/27 00:49:00;;;;;;;7.18;5.55;;;8.40;99.90;;;;;;5034670;28;20032;-83
2023/04/27 00:51:29;;;;;;;8.38;5.45;;;8.40;99.90;;;;;;5034265;28;20025;-83
2023/04/27 00:53:56;;;;;;;11.45;5.97;;;8.30;99.90;;;;;;5034443;28;20408;-83
2023/04/27 00:56:22;;;;;;;5.93;5.03;;;8.30;99.90;;;;;;5034575;28;20049;-83
2023/04/27 00:58:48;;;;;;;6.68;5.00;;;8.30;99.90;;;;;;5035012;28;20064;-83
2023/04/27 01:01:14;;;;;;;9.15;6.00;;;8.30;99.90;;;;;;5032845;28;20025;-83
2023/04/27 01:03:39;;;;;;;5.53;5.00;;;8.20;99.90;;;;;;5033502;28;20060;-82
2023/04/27 01:06:05;;;;;;;8.63;4.60;;;8.30;99.90;;;;;;5033966;28;20477;-83
2023/04/27 01:08:31;;;;;;;11.02;5.07;;;8.20;99.90;;;;;;5034104;28;20389;-83
2023/04/27 01:10:56;;;;;;;5.55;4.50;;;8.20;99.90;;;;;;5034125;28;20021;-83
2023/04/27 01:13:22;;;;;;;7.97;5.05;;;8.20;99.90;;;;;;5034068;28;20018;-83
2023/04/27 01:15:47;;;;;;;7.15;3.85;;;8.20;99.90;;;;;;5034063;28;20032;-83
2023/04/27 01:18:13;;;;;;;10.93;4.72;;;8.20;99.90;;;;;;5033538;28;20026;-82
2023/04/27 01:20:41;;;;;;;5.72;4.20;;;8.30;99.90;;;;;;5033719;28;20053;-83
2023/04/27 01:23:06;;;;;;;6.28;3.80;;;8.30;99.90;;;;;;5033830;28;20477;-82
2023/04/27 01:25:32;;;;;;;6.10;4.13;;;8.30;99.90;;;;;;5033738;28;20030;-83
2023/04/27 01:27:58;;;;;;;7.45;4.65;;;8.30;99.90;;;;;;5031967;28;20049;-83
2023/04/27 01:30:23;;;;;;;6.70;4.18;;;8.30;99.90;;;;;;5033141;28;20025;-82
2023/04/27 01:32:49;;;;;;;6.53;3.80;;;8.30;99.90;;;;;;5032998;28;20017;-82
2023/04/27 01:35:15;;;;;;;9.23;3.60;;;8.40;99.90;;;;;;5031805;28;20029;-82
2023/04/27 01:37:41;;;;;;;8.00;4.50;;;8.30;99.90;;;;;;5033426;28;20029;-83
2023/04/27 01:40:07;;;;;;;9.05;4.82;;;8.40;99.90;;;;;;5032852;28;20033;-82
2023/04/27 01:42:33;;;;;;;5.75;3.65;;;8.40;99.90;;;;;;5032366;28;20033;-82
2023/04/27 01:44:59;;;;;;;5.72;3.92;;;8.40;99.90;;;;;;5033344;28;20485;-83
2023/04/27 01:47:25;;;;;;;8.20;4.15;;;8.30;99.90;;;;;;5032078;28;20358;-82
2023/04/27 01:49:51;;;;;;;5.97;4.22;;;8.80;99.90;;;;;;5013102;28;20038;-83
2023/04/27 01:52:16;;;;;;;9.25;4.40;;;8.30;99.90;;;;;;5012711;28;20037;-82
2023/04/27 01:54:42;;;;;;;5.10;4.28;;;8.30;99.90;;;;;;5014375;28;20489;-83
2023/04/27 01:57:08;;;;;;;7.22;4.70;;;8.30;99.90;;;;;;5013255;28;20030;-83
2023/04/27 01:59:33;;;;;;;7.13;4.22;;;8.30;99.90;;;;;;5013555;28;20045;-83
2023/04/27 02:01:59;;;;;;;5.65;3.85;;;8.30;99.90;;;;;;5013950;28;20486;-83
2023/04/27 02:04:24;;;;;;;8.13;5.00;;;8.30;99.90;;;;;;5012998;28;20103;-82
2023/04/27 02:06:50;;;;;;;7.20;4.25;;;8.20;99.90;;;;;;5013979;28;20113;-83
2023/04/27 02:09:15;;;;;;;6.53;4.50;;;8.20;99.90;;;;;;5013159;28;20026;-83
2023/04/27 02:11:41;;;;;;;9.40;4.82;;;8.20;99.90;;;;;;5013051;28;20034;-82
2023/04/27 02:14:07;;;;;;;7.40;4.45;;;8.20;99.90;;;;;;5013309;28;20026;-83
2023/04/27 02:16:32;;;;;;;8.18;4.15;;;8.20;99.90;;;;;;5030922;28;20030;-83
2023/04/27 02:18:58;;;;;;;6.18;4.80;;;8.10;99.90;;;;;;5032676;28;20033;-83
2023/04/27 02:21:24;;;;;;;5.95;4.85;;;7.90;99.90;;;;;;5032930;28;20032;-83
2023/04/27 02:23:49;;;;;;;9.52;5.57;;;8.00;99.90;;;;;;5032925;28;20029;-83
2023/04/27 02:26:16;;;;;;;8.18;4.60;;;8.10;99.90;;;;;;5033015;28;20049;-83
2023/04/27 02:28:42;;;;;;;7.60;4.95;;;8.00;99.90;;;;;;5033177;28;20045;-83
2023/04/27 02:31:07;;;;;;;8.68;4.90;;;7.90;99.90;;;;;;5031955;28;20017;-83
2023/04/27 02:33:33;;;;;;;12.13;4.78;;;8.00;99.90;;;;;;5032693;28;20104;-82
2023/04/27 02:35:59;;;;;;;6.15;5.00;;;8.00;99.90;;;;;;5033187;28;20060;-82
2023/04/27 02:38:24;;;;;;;11.45;4.65;;;7.90;99.90;;;;;;5032002;28;20175;-82
2023/04/27 02:40:53;;;;;;;8.88;4.65;;;8.00;99.90;;;;;;5033265;28;20018;-82
2023/04/27 02:43:19;;;;;;;5.68;5.18;;;8.00;99.90;;;;;;5032596;28;20029;-81
2023/04/27 02:45:45;;;;;;;5.82;4.28;;;8.00;99.90;;;;;;5032479;28;20112;-82
2023/04/27 02:48:11;;;;;;;9.20;5.20;;;7.80;99.90;;;;;;5032342;28;20156;-82
2023/04/27 02:50:44;;;;;;;9.38;5.35;;;7.80;99.90;;;;;;5033131;28;20026;-82
2023/04/27 02:53:10;;;;;;;6.80;4.53;;;7.70;99.90;;;;;;5031836;28;20018;-82
2023/04/27 02:55:36;;;;;;;6.55;4.47;;;7.50;99.90;;;;;;5031750;28;20508;-82
2023/04/27 02:58:02;;;;;;;8.25;5.30;;;7.40;99.90;;;;;;5032451;28;20033;-82
2023/04/27 03:00:28;;;;;;;9.00;4.95;;;7.20;99.90;;;;;;5031960;28;20034;-82
2023/04/27 03:02:54;;;;;;;9.43;5.18;;;7.10;99.90;;;;;;5031990;28;20032;-82
2023/04/27 03:05:20;;;;;;;5.00;4.35;;;7.10;99.90;;;;;;5032122;28;20052;-82
2023/04/27 03:07:45;;;;;;;11.48;4.38;;;7.10;99.90;;;;;;5011403;28;20040;-82
2023/04/27 03:10:11;;;;;;;7.35;5.18;;;7.10;99.90;;;;;;5012472;28;20033;-82
2023/04/27 03:12:36;;;;;;;7.47;4.80;;;7.10;99.90;;;;;;5012039;28;20029;-82
2023/04/27 03:15:02;;;;;;;11.07;5.07;;;7.30;99.90;;;;;;5011711;28;20124;-82
2023/04/27 03:17:28;;;;;;;11.80;5.07;;;7.30;99.90;;;;;;5012040;28;20540;-82
2023/04/27 03:19:54;;;;;;;8.88;4.45;;;7.40;99.90;;;;;;5012749;28;20041;-82
2023/04/27 03:22:19;;;;;;;6.13;4.20;;;7.40;99.90;;;;;;5011702;28;20033;-83
2023/04/27 03:24:45;;;;;;;7.35;4.30;;;7.20;99.90;;;;;;5012411;28;20509;-83
2023/04/27 03:27:11;;;;;;;6.20;4.57;;;7.00;99.90;;;;;;5011645;28;20410;-82
2023/04/27 03:29:37;;;;;;;5.90;4.05;;;7.10;99.90;;;;;;5011952;28;20544;-83
2023/04/27 03:32:03;;;;;;;8.50;4.57;;;7.20;99.90;;;;;;5011752;28;20572;-83
2023/04/27 03:34:29;;;;;;;9.60;4.97;;;7.30;99.90;;;;;;5011386;28;20026;-82
2023/04/27 03:36:55;;;;;;;9.07;4.25;;;7.30;99.90;;;;;;5012568;28;20077;-83
2023/04/27 03:39:20;;;;;;;11.82;4.15;;;7.10;99.90;;;;;;5011585;28;20088;-82
2023/04/27 03:41:46;;;;;;;7.50;4.65;;;7.00;99.90;;;;;;5011319;28;20433;-82
2023/04/27 03:44:12;;;;;;;7.13;3.97;;;7.10;99.90;;;;;;5012089;28;20036;-82
2023/04/27 03:46:37;;;;;;;7.57;4.47;;;7.20;99.90;;;;;;5012049;28;20030;-82
2023/04/27 03:49:03;;;;;;;9.88;5.13;;;7.20;99.90;;;;;;5010599;28;20044;-82
2023/04/27 03:51:32;;;;;;;5.38;4.57;;;7.20;99.90;;;;;;5011080;28;20026;-83
2023/04/27 03:53:58;;;;;;;8.05;4.50;;;7.30;99.90;;;;;;5012448;28;20026;-83
2023/04/27 03:56:23;;;;;;;10.23;4.68;;;7.10;99.90;;;;;;5010996;28;20025;-82
2023/04/27 03:58:49;;;;;;;5.57;4.47;;;6.90;99.90;;;;;;5012000;28;20117;-83
2023/04/27 04:01:15;;;;;;;9.55;4.47;;;6.70;99.90;;;;;;5011283;28;20473;-83
2023/04/27 04:03:41;;;;;;;9.35;4.22;;;6.70;99.90;;;;;;5011058;28;20215;-82
2023/04/27 04:06:07;;;;;;;6.13;4.57;;;6.70;99.90;;;;;;5011680;28;20022;-83
2023/04/27 04:08:33;;;;;;;6.85;4.15;;;6.60;99.90;;;;;;5012193;28;20025;-82
2023/04/27 04:10:59;;;;;;;6.13;4.50;;;6.50;99.90;;;;;;5011193;28;20029;-83
2023/04/27 04:13:25;;;;;;;10.00;4.35;;;6.50;99.90;;;;;;5011234;28;20037;-83
2023/04/27 04:16:02;;;;;;;6.63;4.82;;;6.60;99.90;;;;;;5011388;28;20017;-82
2023/04/27 04:18:28;;;;;;;8.32;4.38;;;6.60;99.90;;;;;;5014528;28;20049;-83
2023/04/27 04:20:53;;;;;;;12.18;5.35;;;6.60;99.90;;;;;;5015677;28;20022;-83
2023/04/27 04:23:19;;;;;;;8.88;5.07;;;6.60;99.90;;;;;;5015457;28;20034;-83
2023/04/27 04:25:47;;;;;;;7.82;5.30;;;6.40;99.90;;;;;;5014949;28;20018;-83
2023/04/27 04:28:12;;;;;;;10.25;4.95;;;6.30;99.90;;;;;;5015280;28;20559;-83
2023/04/27 04:30:38;;;;;;;12.23;5.20;;;6.30;99.90;;;;;;5015308;28;20030;-83
2023/04/27 04:33:05;;;;;;;9.18;5.20;;;6.30;99.90;;;;;;5015564;28;20021;-82
2023/04/27 04:35:33;;;;;;;10.27;5.57;;;6.40;99.90;;;;;;5015482;28;20040;-82
2023/04/27 04:37:59;;;;;;;6.80;4.50;;;6.50;99.90;;;;;;5014926;28;20026;-82
2023/04/27 04:40:25;;;;;;;4.55;4.15;;;6.60;99.90;;;;;;5015363;28;20030;-83
2023/04/27 04:42:51;;;;;;;5.15;4.45;;;6.70;99.90;;;;;;5015403;28;20185;-83
2023/04/27 04:45:17;;;;;;;9.07;4.35;;;6.80;99.90;;;;;;5014581;28;20022;-83
2023/04/27 04:47:43;;;;;;;6.88;4.60;;;6.90;99.90;;;;;;5014073;28;20029;-83
2023/04/27 04:50:09;;;;;;;8.48;4.72;;;7.00;99.90;;;;;;5014976;28;20018;-83
2023/04/27 04:52:36;;;;;;;6.78;4.90;;;7.10;99.90;;;;;;5014550;28;20101;-83
2023/04/27 04:55:02;;;;;;;15.02;5.70;;;7.20;99.90;;;;;;5014982;28;20033;-83
2023/04/27 04:57:28;;;;;;;13.52;5.28;;;7.20;99.90;;;;;;5014751;28;20057;-83
2023/04/27 04:59:54;;;;;;;10.82;4.93;;;7.20;99.90;;;;;;5013577;28;20038;-83
2023/04/27 05:02:20;;;;;;;9.70;4.93;;;7.30;99.90;;;;;;5014830;28;20026;-83
2023/04/27 05:04:45;;;;;;;6.07;5.30;;;7.40;99.90;;;;;;5015346;28;20429;-83
2023/04/27 05:07:11;;;;;;;16.77;5.40;;;7.40;99.90;;;;;;5013605;28;20049;-83
2023/04/27 05:09:37;;;;;;;10.98;5.03;;;7.40;99.90;;;;;;5016249;28;20037;-84
2023/04/27 05:12:03;;;;;;;10.50;6.20;;;7.40;99.90;;;;;;5014059;28;20022;-84
2023/04/27 05:14:28;;;;;;;5.20;4.72;;;7.60;99.90;;;;;;5013681;28;20499;-83
2023/04/27 05:16:54;;;;;;;6.70;5.10;;;7.50;99.90;;;;;;5014718;28;20029;-82
2023/04/27 05:19:20;;;;;;;7.72;4.90;;;7.40;99.90;;;;;;5013704;28;20038;-82
2023/04/27 05:21:45;;;;;;;11.15;5.60;;;7.50;99.90;;;;;;5014194;28;20026;-84
2023/04/27 05:24:12;;;;;;;7.40;4.95;;;7.50;99.90;;;;;;5014364;28;20109;-83
2023/04/27 05:26:37;;;;;;;7.82;5.75;;;7.40;99.90;;;;;;5013607;28;20041;-82
2023/04/27 05:29:03;;;;;;;12.18;5.68;;;7.30;99.90;;;;;;5007553;28;20081;-83
2023/04/27 05:31:29;;;;;;;11.70;6.22;;;7.40;99.90;;;;;;5003374;28;20030;-84
2023/04/27 05:33:54;;;;;;;19.15;5.68;;;7.50;99.90;;;;;;5005465;28;20034;-84
2023/04/27 05:36:20;;;;;;;9.88;5.07;;;7.50;99.90;;;;;;5002748;28;20018;-83
2023/04/27 05:38:46;;;;;;;7.10;5.85;;;7.60;99.90;;;;;;5007115;28;20383;-84
2023/04/27 05:41:11;;;;;;;12.20;5.70;;;7.50;99.90;;;;;;5003948;28;20052;-83
2023/04/27 05:43:37;;;;;;;8.40;6.10;;;7.50;99.90;;;;;;5004214;28;20065;-83
2023/04/27 05:46:03;;;;;;;7.82;6.20;;;7.40;99.90;;;;;;5002983;28;20034;-83
2023/04/27 05:48:29;;;;;;;10.95;6.68;;;7.10;99.90;;;;;;5001994;28;20089;-83
2023/04/27 05:51:01;;;;;;;9.75;5.93;;;7.00;99.90;;;;;;5003038;28;20417;-83
2023/04/27 05:53:27;;;;;;;7.45;5.63;;;7.00;99.90;;;;;;5003498;28;20378;-83
2023/04/27 05:55:53;;;;;;;12.75;5.72;;;7.00;99.90;;;;;;5001924;28;20049;-83
2023/04/27 05:58:19;;;;;;;12.38;6.25;;;6.80;99.90;;;;;;5002268;28;20030;-84
2023/04/27 06:00:44;;;;;;;10.65;5.97;;;6.80;99.90;;;;;;5003242;28;20060;-83
2023/04/27 06:03:10;;;;;;;9.65;6.13;;;6.70;99.90;;;;;;5003380;28;20014;-83
2023/04/27 06:05:35;;;;;;;11.52;6.18;;;6.70;99.90;;;;;;5003027;28;20026;-83
2023/04/27 06:08:01;;;;;;;14.15;6.55;;;6.70;99.90;;;;;;5003232;28;20060;-83
2023/04/27 06:10:27;;;;;;;8.38;5.57;;;6.80;99.90;;;;;;5003743;28;20034;-84
2023/04/27 06:12:53;;;;;;;9.27;6.07;;;6.90;99.90;;;;;;5002996;28;20030;-84
2023/04/27 06:15:19;;;;;;;9.27;6.07;;;6.90;99.90;;;;;;5006502;28;20640;-84
2023/04/27 06:17:45;;;;;;;12.35;6.50;;;7.00;99.90;;;;;;5014082;28;20389;-84
2023/04/27 06:20:11;;;;;;;12.40;6.50;;;6.90;99.90;;;;;;5011674;28;20034;-83
2023/04/27 06:22:37;;;;;;;10.23;5.90;;;6.80;99.90;;;;;;5012045;28;20054;-83
2023/04/27 06:25:04;;;;;;;10.65;6.88;;;6.60;99.90;;;;;;5010468;28;20030;-83
2023/04/27 06:27:29;;;;;;;6.25;5.65;;;6.70;99.90;;;;;;5011756;28;20406;-83
2023/04/27 06:29:55;;;;;;;6.90;5.85;;;6.80;99.90;;;;;;5011835;28;20044;-83
2023/04/27 06:32:20;;;;;;;11.20;6.60;;;6.80;99.90;;;;;;5010568;28;20022;-83
2023/04/27 06:34:46;;;;;;;9.15;5.80;;;6.80;99.90;;;;;;5011796;28;20037;-83
2023/04/27 06:37:13;;;;;;;11.68;6.13;;;6.80;99.90;;;;;;5010057;28;20026;-84
2023/04/27 06:39:39;;;;;;;6.10;5.22;;;6.80;99.90;;;;;;5012280;28;20045;-84
2023/04/27 06:42:04;;;;;;;7.45;5.22;;;6.70;99.90;;;;;;5011736;28;20029;-84
2023/04/27 06:44:31;;;;;;;7.45;5.38;;;6.80;99.90;;;;;;5011208;28;20021;-83
2023/04/27 06:46:57;;;;;;;8.43;5.53;;;6.90;99.90;;;;;;5009340;28;20029;-84
2023/04/27 06:49:22;;;;;;;12.50;5.47;;;7.00;99.90;;;;;;5010973;28;20022;-83
2023/04/27 06:51:48;;;;;;;21.45;6.13;;;7.10;99.90;;;;;;5012278;28;20049;-83
2023/04/27 06:54:14;;;;;;;10.38;6.22;;;7.20;99.90;;;;;;5012610;28;20030;-84
2023/04/27 06:56:39;;;;;;;9.65;5.22;;;7.20;99.90;;;;;;5013058;28;20045;-84
2023/04/27 06:59:05;;;;;;;8.45;5.45;;;7.10;99.90;;;;;;5012121;28;20465;-83
2023/04/27 07:01:30;;;;;;;7.47;5.53;;;7.10;99.90;;;;;;5012526;28;20030;-83
2023/04/27 07:03:56;;;;;;;14.20;5.30;;;7.10;99.90;;;;;;5011884;28;20108;-84
2023/04/27 07:06:24;;;;;;;8.10;5.07;;;7.20;99.90;;;;;;5011665;28;20026;-84
2023/04/27 07:08:50;;;;;;;11.35;5.10;;;7.20;99.90;;;;;;5012668;28;20044;-84
2023/04/27 07:11:15;;;;;;;10.13;6.45;;;7.40;99.90;;;;;;5012521;28;20029;-84
2023/04/27 07:13:41;;;;;;;8.68;5.40;;;7.40;99.90;;;;;;5011622;28;20375;-83
2023/04/27 07:16:07;;;;;;;10.65;4.97;;;7.50;99.90;;;;;;5011918;28;20030;-84
2023/04/27 07:18:32;;;;;;;12.27;5.63;;;7.50;99.90;;;;;;5011884;28;20141;-83
2023/04/27 07:20:58;;;;;;;15.10;5.88;;;7.60;99.90;;;;;;5008069;28;20068;-83
2023/04/27 07:23:23;;;;;;;11.10;5.75;;;7.60;99.90;;;;;;5003882;28;20030;-83
2023/04/27 07:25:49;;;;;;;6.25;4.97;;;7.70;99.90;;;;;;5002159;28;20028;-84
2023/04/27 07:28:15;;;;;;;8.77;4.53;;;7.70;99.90;;;;;;4999909;28;20056;-83
2023/04/27 07:30:41;;;;;;;6.57;4.18;;;7.80;99.90;;;;;;5001074;28;20029;-84
2023/04/27 07:33:08;;;;;;;7.75;4.40;;;7.80;99.90;;;;;;4993635;28;20105;-84
2023/04/27 07:35:34;;;;;;;9.57;4.47;;;7.80;99.90;;;;;;4992221;28;20382;-83
2023/04/27 07:38:01;;;;;;;5.03;3.38;;;7.90;99.90;;;;;;4992330;28;20751;-83
2023/04/27 07:40:27;;;;;;;5.78;3.28;;;7.90;99.90;;;;;;4992173;28;20030;-84
2023/04/27 07:42:53;;;;;;;5.63;3.42;;;7.90;99.90;;;;;;4992756;28;20018;-86
2023/04/27 07:45:20;;;;;;;7.50;3.33;;;7.80;99.90;;;;;;4992039;28;20034;-83
2023/04/27 07:47:46;;;;;;;8.38;3.15;;;8.00;99.90;;;;;;4996534;28;20088;-83
2023/04/27 07:50:13;;;;;;;6.00;3.08;;;8.00;99.90;;;;;;5004013;28;20407;-84
2023/04/27 07:52:39;;;;;;;8.23;3.53;;;8.10;99.90;;;;;;5002766;28;20117;-85
2023/04/27 07:55:05;;;;;;;4.80;3.38;;;8.10;99.90;;;;;;5004863;28;20434;-85
2023/04/27 07:57:30;;;;;;;8.55;3.97;;;8.10;99.90;;;;;;5008571;28;20037;-85
2023/04/27 07:59:56;;;;;;;9.57;3.63;;;8.20;99.90;;;;;;5005787;28;20057;-85
2023/04/27 08:02:22;;;;;;;6.07;3.88;;;8.20;99.90;;;;;;5000524;28;20030;-85
2023/04/27 08:04:48;;;;;;;7.28;4.22;;;8.30;99.90;;;;;;5002458;28;20023;-82
2023/04/27 08:07:17;;;;;;;6.80;3.53;;;8.30;99.90;;;;;;5005405;28;20025;-84
2023/04/27 08:09:42;;;;;;;8.02;3.58;;;8.20;99.90;;;;;;5002628;28;20030;-85
2023/04/27 08:12:08;;;;;;;5.85;3.58;;;8.20;99.90;;;;;;5004192;28;20027;-84
2023/04/27 08:14:34;;;;;;;4.32;3.67;;;8.20;99.90;;;;;;5003429;28;20494;-85
2023/04/27 08:17:00;;;;;;;6.10;3.50;;;8.30;99.90;;;;;;5003494;28;20018;-84
2023/04/27 08:19:25;;;;;;;9.73;4.50;;;8.30;99.90;;;;;;5001930;28;20486;-88
2023/04/27 08:21:51;;;;;;;10.93;3.95;;;8.40;99.90;;;;;;5008403;28;20018;-85
2023/04/27 08:24:17;;;;;;;7.03;4.00;;;8.40;99.90;;;;;;5009253;28;20033;-85
2023/04/27 08:26:42;;;;;;;8.02;3.15;;;8.50;99.90;;;;;;4994203;28;20549;-83
2023/04/27 08:29:08;;;;;;;7.07;3.75;;;8.60;99.90;;;;;;4991071;28;20541;-84
2023/04/27 08:31:33;;;;;;;6.07;3.00;;;9.40;99.90;;;;;;4991225;28;20027;-83
2023/04/27 08:34:00;;;;;;;4.82;3.33;;;8.70;99.90;;;;;;4994348;28;20022;-83
2023/04/27 08:36:26;;;;;;;6.03;4.00;;;8.80;99.90;;;;;;4996067;28;20549;-84
2023/04/27 08:38:52;;;;;;;6.63;4.15;;;9.00;99.90;;;;;;5001439;28;20453;-82
2023/04/27 08:41:20;;;;;;;9.43;3.67;;;8.70;99.90;;;;;;5014098;28;20026;-82
2023/04/27 08:43:50;;;;;;;6.32;4.28;;;8.80;99.90;;;;;;5014437;28;20030;-87
2023/04/27 08:46:30;;;;;;;6.33;3.80;;;8.80;99.90;;;;;;5014308;28;20022;-84
2023/04/27 08:48:55;;;;;;;4.78;4.07;;;8.80;99.90;;;;;;5010937;28;20092;-85
2023/04/27 08:51:23;;;;;;;7.80;3.72;;;8.90;99.90;;;;;;5013378;28;20033;-86
2023/04/27 08:54:00;;;;;;;6.68;3.67;;;8.90;99.90;;;;;;5015085;28;20058;-85
2023/04/27 08:56:27;;;;;;;7.15;3.88;;;9.50;99.90;;;;;;5015081;28;20044;-85
2023/04/27 08:58:55;;;;;;;9.43;3.78;;;9.30;99.90;;;;;;5016202;28;20042;-85
2023/04/27 09:01:35;;;;;;;4.70;3.58;;;9.00;99.90;;;;;;5007975;28;20114;-88
2023/04/27 09:04:01;;;;;;;5.57;3.10;;;9.50;99.90;;;;;;5010678;28;20467;-88
2023/04/27 09:06:45;;;;;;;5.50;3.40;;;9.00;99.90;;;;;;5015571;28;20046;-87
2023/04/27 09:09:23;;;;;;;8.27;3.63;;;10.00;99.90;;;;;;5015653;28;20136;-89
2023/04/27 09:11:50;;;;;;;8.52;3.25;;;9.10;99.90;;;;;;5003395;28;20022;-89
2023/04/27 09:14:24;;;;;;;7.60;3.05;;;9.80;99.90;;;;;;5014088;28;20026;-87
2023/04/27 09:17:15;;;;;;;5.93;3.03;;;9.80;99.90;;;;;;5013991;28;20030;-87
2023/04/27 09:22:53;;;;;;;4.28;3.75;;;9.30;99.90;;;;;;5004284;28;20892;-87
2023/04/27 09:25:37;;;;;;;7.18;3.67;;;9.80;99.90;;;;;;5014340;28;20030;-87
2023/04/27 09:28:50;;;;;;;3.53;3.10;;;9.90;99.90;;;;;;5009124;28;20062;-87
2023/04/27 09:31:29;;;;;;;4.03;3.55;;;9.90;99.90;;;;;;5005318;28;20038;-87
2023/04/27 09:34:09;;;;;;;5.13;3.72;;;10.00;99.90;;;;;;5013735;28;20421;-87
2023/04/27 09:36:35;;;;;;;5.28;3.85;;;10.20;99.90;;;;;;5010818;28;20038;-86
2023/04/27 09:39:04;;;;;;;4.85;3.35;;;9.60;99.90;;;;;;5009053;28;20473;-88
2023/04/27 09:41:32;;;;;;;5.20;3.38;;;9.80;99.90;;;;;;5009965;28;20033;-89
2023/04/27 09:44:16;;;;;;;5.85;3.85;;;10.00;99.90;;;;;;5001420;28;20381;-87
2023/04/27 09:46:44;;;;;;;6.43;3.65;;;10.10;99.90;;;;;;5014465;28;20030;-87
2023/04/27 09:49:17;;;;;;;7.00;3.72;;;10.20;99.90;;;;;;5013298;28;20033;-87
2023/04/27 09:51:49;;;;;;;4.47;3.70;;;10.30;99.90;;;;;;5002045;28;20033;-87
2023/04/27 09:54:15;;;;;;;6.70;4.13;;;9.80;99.90;;;;;;5013276;28;20025;-87
2023/04/27 09:57:22;;;;;;;8.30;3.40;;;9.40;99.90;;;;;;5014256;28;20080;-86
2023/04/27 10:00:12;;;;;;;6.10;3.42;;;9.60;99.90;;;;;;4935661;29;20047;-87
2023/04/27 10:03:14;;;;;;;9.60;3.60;;;9.90;99.90;;;;;;5007575;28;20037;-88
2023/04/27 10:08:28;;;;;;;7.13;3.50;;;10.00;99.90;;;;;;5011267;23;20050;-86
2023/04/27 10:10:54;;;;;;;5.50;4.18;;;10.00;99.90;;;;;;4993382;28;20063;-86
2023/04/27 10:13:25;;;;;;;7.50;3.95;;;10.20;99.90;;;;;;4989605;28;20085;-86
2023/04/27 10:15:51;;;;;;;6.97;4.28;;;10.50;99.90;;;;;;4988028;28;20514;-85
2023/04/27 10:18:29;;;;;;;6.13;4.13;;;10.10;99.90;;;;;;4987798;28;20578;-85
2023/04/27 10:20:56;;;;;;;6.28;3.92;;;10.20;99.90;;;;;;4997420;28;20030;-84
2023/04/27 10:23:26;;;;;;;7.90;3.83;;;10.20;99.90;;;;;;4998965;28;20096;-83
2023/04/27 10:25:53;;;;;;;6.32;4.35;;;10.30;99.70;;;;;;4990145;28;20109;-81
2023/04/27 10:28:21;;;;;;;4.63;3.95;;;10.30;99.20;;;;;;4992737;28;20034;-82
2023/04/27 10:30:47;;;;;;;5.03;3.72;;;10.40;99.80;;;;;;4999999;28;20034;-81
2023/04/27 10:33:21;;;;;;;6.55;4.50;;;10.40;99.30;;;;;;4988134;28;20034;-82
2023/04/27 10:35:57;;;;;;;7.15;4.25;;;10.40;98.90;;;;;;4984885;28;20165;-83
2023/04/27 10:38:29;;;;;;;6.97;4.15;;;10.50;98.70;;;;;;4988208;28;20486;-83
2023/04/27 10:41:04;;;;;;;11.90;5.57;;;10.50;98.50;;;;;;4989041;28;20038;-82
2023/04/27 10:43:33;;;;;;;5.43;4.40;;;10.50;98.70;;;;;;4987157;28;20803;-84
2023/04/27 10:46:13;;;;;;;6.63;4.57;;;10.50;98.40;;;;;;4992603;28;20022;-83
2023/04/27 10:48:42;;;;;;;5.43;4.07;;;10.50;98.60;;;;;;4988338;28;20117;-84
2023/04/27 10:51:07;;;;;;;10.32;4.82;;;10.60;98.80;;;;;;4990455;28;20022;-84
2023/04/27 10:53:34;;;;;;;7.07;4.28;;;10.70;98.90;;;;;;4988985;28;20057;-84
2023/04/27 10:56:00;;;;;;;5.95;4.68;;;10.70;98.10;;;;;;4988426;28;20498;-84
2023/04/27 10:58:26;;;;;;;4.70;4.20;;;10.70;98.70;;;;;;4987653;28;20031;-83
2023/04/27 11:00:52;;;;;;;7.20;4.25;;;10.80;98.40;;;;;;4986349;28;20042;-82
2023/04/27 11:03:22;;;;;;;8.68;4.00;;;10.80;98.00;;;;;;4986997;28;20125;-83
2023/04/27 11:05:57;;;;;;;4.97;3.75;;;10.90;97.90;;;;;;4987350;28;20114;-84
2023/04/27 11:08:23;;;;;;;6.85;4.75;;;10.90;97.20;;;;;;4987979;28;20084;-83
2023/04/27 11:10:50;;;;;;;8.55;4.47;;;10.90;97.80;;;;;;4987751;28;20046;-83
2023/04/27 11:13:20;;;;;;;5.53;5.03;;;10.90;98.10;;;;;;4988912;28;20121;-86
2023/04/27 11:15:51;;;;;;;7.75;4.50;;;10.90;97.60;;;;;;4986945;28;20026;-84
2023/04/27 11:18:18;;;;;;;6.90;4.70;;;11.00;98.60;;;;;;4986479;28;20383;-87
2023/04/27 11:20:47;;;;;;;9.60;5.60;;;11.00;97.80;;;;;;4986843;28;20053;-83
2023/04/27 11:23:24;;;;;;;7.05;4.78;;;11.10;97.60;;;;;;4985339;28;20113;-85
2023/04/27 11:25:51;;;;;;;7.68;4.72;;;11.10;97.70;;;;;;4987743;28;20526;-83
2023/04/27 11:28:18;;;;;;;4.50;4.15;;;11.10;97.40;;;;;;4986744;28;20022;-84
2023/04/27 11:30:43;;;;;;;8.90;4.65;;;11.10;97.50;;;;;;4985700;28;20034;-83
2023/04/27 11:33:09;;;;;;;7.47;4.47;;;11.20;97.20;;;;;;4987946;28;20038;-84
2023/04/27 11:35:35;;;;;;;6.57;5.88;;;11.20;97.40;;;;;;4986253;28;20054;-85
2023/04/27 11:38:01;;;;;;;9.85;4.25;;;11.20;96.70;;;;;;4987955;28;20022;-87
2023/04/27 11:40:28;;;;;;;9.43;4.45;;;11.30;96.80;;;;;;4986629;28;20071;-87
2023/04/27 11:42:57;;;;;;;7.70;5.30;;;11.40;97.00;;;;;;4992682;28;20041;-83
2023/04/27 11:45:26;;;;;;;6.63;4.90;;;11.30;97.00;;;;;;5009570;28;20033;-82
2023/04/27 11:47:52;;;;;;;8.25;4.93;;;11.80;97.20;;;;;;5010017;28;20296;-84
2023/04/27 11:50:18;;;;;;;5.80;5.03;;;11.50;97.00;;;;;;5011701;28;20054;-83
2023/04/27 11:52:47;;;;;;;5.72;4.65;;;11.50;96.40;;;;;;5012263;28;20036;-84
2023/04/27 11:55:14;;;;;;;5.63;4.70;;;11.50;96.30;;;;;;5011468;28;20026;-83
2023/04/27 11:57:40;;;;;;;6.32;5.30;;;11.80;96.30;;;;;;5009736;28;20093;-83
2023/04/27 12:00:10;;;;;;;10.07;5.32;;;11.60;97.00;;;;;;5008425;28;20065;-82
2023/04/27 12:02:36;;;;;;;7.70;5.13;;;11.60;97.50;;;;;;5007220;28;20040;-83
2023/04/27 12:05:03;;;;;;;8.32;4.75;;;11.60;97.50;;;;;;5007810;28;20474;-83
2023/04/27 12:07:29;;;;;;;7.43;5.82;;;11.70;96.00;;;;;;5007295;28;20081;-83
2023/04/27 12:09:55;;;;;;;5.35;4.85;;;11.80;95.70;;;;;;5007335;28;20054;-82
2023/04/27 12:12:21;;;;;;;5.28;4.72;;;11.80;95.70;;;;;;5008216;28;20041;-82
2023/04/27 12:14:47;;;;;;;7.50;4.97;;;11.80;95.80;;;;;;5009954;28;20105;-82
2023/04/27 12:17:13;;;;;;;6.20;5.38;;;11.80;96.40;;;;;;5011383;28;20026;-83
2023/04/27 12:19:39;;;;;;;9.85;5.00;;;12.00;96.30;;;;;;5011914;28;20034;-83
2023/04/27 12:22:04;;;;;;;4.95;4.47;;;11.80;96.20;;;;;;5011016;28;20504;-82
2023/04/27 12:24:31;;;;;;;6.45;4.22;;;12.00;95.30;;;;;;5012088;28;20033;-82
2023/04/27 12:26:57;;;;;;;6.90;4.80;;;11.90;95.00;;;;;;5012241;28;20108;-82
2023/04/27 12:29:23;;;;;;;5.05;4.50;;;11.90;95.20;;;;;;5011551;28;20117;-83
2023/04/27 12:31:49;;;;;;;5.43;4.93;;;11.90;95.20;;;;;;5011870;28;20026;-83
2023/04/27 12:34:15;;;;;;;9.77;5.35;;;12.00;96.40;;;;;;5011231;28;20036;-83
2023/04/27 12:36:41;;;;;;;5.55;5.03;;;12.00;96.70;;;;;;5013657;28;20105;-82
2023/04/27 12:39:18;;;;;;;5.13;4.63;;;12.00;96.80;;;;;;5015298;28;20045;-83
2023/04/27 12:41:46;;;;;;;7.95;4.93;;;12.10;95.90;;;;;;5015003;28;20613;-83
2023/04/27 12:44:12;;;;;;;7.68;5.22;;;12.10;96.10;;;;;;5014558;28;20048;-83
2023/04/27 12:46:38;;;;;;;6.75;5.10;;;12.10;95.60;;;;;;5015224;28;20429;-83
2023/04/27 12:49:05;;;;;;;5.25;4.80;;;12.10;95.70;;;;;;5015046;28;20030;-83
2023/04/27 12:51:31;;;;;;;7.72;4.85;;;12.10;96.30;;;;;;5015035;28;20038;-83
2023/04/27 12:53:57;;;;;;;9.52;4.93;;;12.20;96.00;;;;;;5015357;28;20041;-83
2023/04/27 12:56:23;;;;;;;8.25;4.93;;;12.20;95.80;;;;;;5014901;28;20033;-83
2023/04/27 12:58:48;;;;;;;8.15;4.65;;;12.30;95.90;;;;;;5013636;28;20044;-83